createdAt,value
2023-02-11T00:00:42.587Z,2.87
2023-02-11T00:03:09.747Z,2.87
2023-02-11T00:05:36.812Z,2.85
2023-02-11T00:08:03.520Z,2.87
2023-02-11T00:10:30.232Z,2.85
2023-02-11T00:12:56.863Z,2.88
2023-02-11T00:15:23.436Z,2.93
2023-02-11T00:17:50.023Z,2.88
2023-02-11T00:20:16.661Z,2.95
2023-02-11T00:22:43.638Z,3.02
2023-02-11T00:25:10.253Z,3.06
2023-02-11T00:27:37.690Z,3.06
2023-02-11T00:30:05.306Z,3.08
2023-02-11T00:32:32.211Z,3.10
2023-02-11T00:34:58.807Z,3.12
2023-02-11T00:37:25.633Z,3.10
2023-02-11T00:39:52.488Z,3.16
2023-02-11T00:42:19.048Z,3.23
2023-02-11T00:44:45.702Z,3.24
2023-02-11T00:47:12.368Z,3.32
2023-02-11T00:49:40.355Z,3.32
2023-02-11T00:52:07.280Z,3.41
2023-02-11T00:54:33.894Z,3.46
2023-02-11T00:57:00.533Z,3.53
2023-02-11T00:59:27.336Z,3.53
2023-02-11T01:01:53.937Z,3.56
2023-02-11T01:04:20.457Z,3.53
2023-02-11T01:06:47.122Z,3.51
2023-02-11T01:09:13.754Z,3.60
2023-02-11T01:11:40.358Z,3.60
2023-02-11T01:14:06.908Z,3.63
2023-02-11T01:16:33.501Z,3.63
2023-02-11T01:19:00.215Z,3.63
2023-02-11T01:21:26.925Z,3.59
2023-02-11T01:23:53.424Z,3.61
2023-02-11T01:26:20.101Z,3.60
2023-02-11T01:28:46.763Z,3.64
2023-02-11T01:31:13.899Z,3.60
2023-02-11T01:33:40.984Z,3.60
2023-02-11T01:36:08.421Z,3.57
2023-02-11T01:38:35.978Z,3.69
2023-02-11T01:41:06.157Z,3.63
2023-02-11T01:43:37.104Z,3.64
2023-02-11T01:46:36.682Z,3.71
2023-02-11T01:49:06.511Z,3.71
2023-02-11T01:51:38.702Z,3.66
2023-02-11T01:54:27.337Z,3.69
2023-02-11T01:57:15.535Z,3.71
2023-02-11T02:00:13.160Z,3.75
2023-02-11T02:03:00.698Z,3.74
2023-02-11T02:05:37.831Z,3.73
2023-02-11T02:08:13.828Z,3.74
2023-02-11T02:10:44.942Z,3.74
2023-02-11T02:13:11.852Z,3.73
2023-02-11T02:15:41.536Z,3.75
2023-02-11T02:18:22.861Z,3.71
2023-02-11T02:21:27.634Z,3.80
2023-02-11T02:24:18.856Z,3.77
2023-02-11T02:26:45.354Z,3.75
2023-02-11T02:29:27.153Z,3.71
2023-02-11T02:32:30.866Z,3.71
2023-02-11T02:35:06.897Z,3.78
2023-02-11T02:38:08.188Z,3.80
2023-02-11T02:40:40.998Z,3.71
2023-02-11T02:43:09.833Z,3.75
2023-02-11T02:45:36.353Z,3.77
2023-02-11T02:48:03.144Z,3.77
2023-02-11T02:50:33.943Z,3.77
2023-02-11T02:53:26.693Z,3.71
2023-02-11T02:56:37.878Z,3.77
2023-02-11T02:59:10.766Z,3.82
2023-02-11T03:01:43.625Z,3.80
2023-02-11T03:04:10.171Z,3.82
2023-02-11T03:06:47.038Z,3.82
2023-02-11T03:09:24.138Z,3.80
2023-02-11T03:11:50.750Z,3.78
2023-02-11T03:14:19.266Z,3.73
2023-02-11T03:16:48.376Z,3.77
2023-02-11T03:19:26.744Z,3.74
2023-02-11T03:21:54.832Z,3.81
2023-02-11T03:24:30.635Z,3.74
2023-02-11T03:27:01.493Z,3.77
2023-02-11T03:29:37.480Z,3.81
2023-02-11T03:32:16.009Z,3.84
2023-02-11T03:34:59.082Z,3.82
2023-02-11T03:37:50.824Z,3.77
2023-02-11T03:40:26.862Z,3.75
2023-02-11T03:42:59.611Z,3.77
2023-02-11T03:45:27.724Z,3.74
2023-02-11T03:48:01.517Z,3.77
2023-02-11T03:50:32.474Z,3.73
2023-02-11T03:53:01.967Z,3.78
2023-02-11T03:55:29.907Z,3.82
2023-02-11T03:57:56.837Z,3.80
2023-02-11T04:00:33.631Z,3.78
2023-02-11T04:03:00.418Z,3.84
2023-02-11T04:05:27.205Z,3.78
2023-02-11T04:07:53.823Z,3.81
2023-02-11T04:10:20.556Z,3.82
2023-02-11T04:12:47.132Z,3.81
2023-02-11T04:15:13.652Z,3.80
2023-02-11T04:17:41.343Z,3.82
2023-02-11T04:20:08.761Z,3.84
2023-02-11T04:22:36.159Z,3.80
2023-02-11T04:25:03.946Z,3.80
2023-02-11T04:27:30.587Z,3.78
2023-02-11T04:29:57.858Z,3.81
2023-02-11T04:32:24.409Z,3.84
2023-02-11T04:34:51.850Z,3.88
2023-02-11T04:37:18.516Z,3.85
2023-02-11T04:39:45.041Z,3.88
2023-02-11T04:42:12.294Z,3.85
2023-02-11T04:44:38.928Z,3.92
2023-02-11T04:47:05.519Z,3.92
2023-02-11T04:49:32.173Z,3.95
2023-02-11T04:51:58.742Z,3.95
2023-02-11T04:54:25.393Z,3.91
2023-02-11T04:56:51.979Z,3.97
2023-02-11T04:59:18.762Z,3.91
2023-02-11T05:01:45.286Z,3.88
2023-02-11T05:04:11.934Z,3.84
2023-02-11T05:06:39.693Z,3.82
2023-02-11T05:09:06.636Z,3.80
2023-02-11T05:11:33.328Z,3.84
2023-02-11T05:13:59.943Z,3.90
2023-02-11T05:16:26.456Z,3.91
2023-02-11T05:18:55.423Z,3.91
2023-02-11T05:21:22.452Z,3.85
2023-02-11T05:23:48.984Z,3.84
2023-02-11T05:26:16.247Z,3.88
2023-02-11T05:28:43.072Z,3.92
2023-02-11T05:31:10.557Z,3.94
2023-02-11T05:33:37.647Z,3.98
2023-02-11T05:36:07.477Z,3.99
2023-02-11T05:38:34.710Z,4.01
2023-02-11T05:41:01.424Z,4.01
2023-02-11T05:43:28.061Z,3.95
2023-02-11T05:45:54.837Z,4.01
2023-02-11T05:48:21.516Z,4.02
2023-02-11T05:50:48.118Z,4.06
2023-02-11T05:53:14.795Z,4.06
2023-02-11T05:55:41.647Z,4.11
2023-02-11T05:58:08.319Z,4.16
2023-02-11T06:00:35.594Z,4.26
2023-02-11T06:03:04.177Z,4.31
2023-02-11T06:05:31.319Z,4.36
2023-02-11T06:07:58.055Z,4.35
2023-02-11T06:10:24.618Z,4.40
2023-02-11T06:12:51.231Z,4.42
2023-02-11T06:15:18.022Z,4.48
2023-02-11T06:17:44.728Z,4.40
2023-02-11T06:20:11.518Z,4.50
2023-02-11T06:22:38.214Z,4.53
2023-02-11T06:25:05.507Z,4.53
2023-02-11T06:27:32.185Z,4.50
2023-02-11T06:29:58.773Z,4.57
2023-02-11T06:32:43.301Z,4.60
2023-02-11T06:35:12.347Z,4.57
2023-02-11T06:37:41.543Z,4.60
2023-02-11T06:40:09.561Z,4.60
2023-02-11T06:42:38.668Z,4.64
2023-02-11T06:45:06.171Z,4.67
2023-02-11T06:47:32.930Z,4.69
2023-02-11T06:49:59.729Z,4.74
2023-02-11T06:52:26.342Z,4.74
2023-02-11T06:54:52.869Z,4.81
2023-02-11T06:57:19.659Z,4.79
2023-02-11T06:59:46.994Z,4.93
2023-02-11T07:02:13.529Z,4.93
2023-02-11T07:04:40.092Z,4.91
2023-02-11T07:07:06.640Z,5.02
2023-02-11T07:09:33.235Z,5.05
2023-02-11T07:11:59.868Z,5.12
2023-02-11T07:14:26.444Z,5.10
2023-02-11T07:16:53.038Z,5.10
2023-02-11T07:19:20.006Z,5.08
2023-02-11T07:21:46.682Z,5.10
2023-02-11T07:24:13.193Z,5.14
2023-02-11T07:26:40.820Z,5.20
2023-02-11T07:29:07.386Z,5.24
2023-02-11T07:31:34.131Z,5.28
2023-02-11T07:34:01.807Z,5.38
2023-02-11T07:36:31.688Z,5.30
2023-02-11T07:38:58.713Z,5.35
2023-02-11T07:41:26.017Z,5.38
2023-02-11T07:43:52.750Z,5.42
2023-02-11T07:46:22.514Z,5.48
2023-02-11T07:48:49.405Z,5.49
2023-02-11T07:51:19.001Z,5.45
2023-02-11T07:53:46.524Z,5.51
2023-02-11T07:56:15.188Z,5.56
2023-02-11T07:58:43.038Z,5.56
2023-02-11T08:01:12.294Z,5.63
2023-02-11T08:03:39.859Z,5.55
2023-02-11T08:06:08.826Z,5.51
2023-02-11T08:08:35.479Z,5.58
2023-02-11T08:11:14.690Z,5.55
2023-02-11T08:13:42.188Z,5.59
2023-02-11T08:16:09.446Z,5.58
2023-02-11T08:18:36.432Z,5.59
2023-02-11T08:21:07.967Z,5.62
2023-02-11T08:23:37.306Z,5.55
2023-02-11T08:26:06.312Z,5.63
2023-02-11T08:28:36.620Z,5.66
2023-02-11T08:31:12.559Z,5.56
2023-02-11T08:33:40.964Z,5.60
2023-02-11T08:36:12.277Z,5.62
2023-02-11T08:38:39.250Z,5.66
2023-02-11T08:41:06.500Z,5.66
2023-02-11T08:43:33.674Z,5.63
2023-02-11T08:46:02.320Z,5.72
2023-02-11T08:48:29.886Z,5.72
2023-02-11T08:50:57.312Z,5.76
2023-02-11T08:53:24.305Z,5.80
2023-02-11T08:55:52.746Z,5.76
2023-02-11T08:58:20.521Z,5.76
2023-02-11T09:00:48.840Z,5.80
2023-02-11T09:03:16.153Z,5.86
2023-02-11T09:05:47.271Z,5.90
2023-02-11T09:08:14.692Z,6.02
2023-02-11T09:10:41.369Z,5.92
2023-02-11T09:13:08.442Z,5.97
2023-02-11T09:15:35.368Z,5.96
2023-02-11T09:18:02.454Z,5.97
2023-02-11T09:20:29.140Z,6.09
2023-02-11T09:22:58.292Z,6.03
2023-02-11T09:25:25.098Z,6.00
2023-02-11T09:27:53.636Z,6.09
2023-02-11T09:30:21.063Z,6.10
2023-02-11T09:32:47.781Z,6.17
2023-02-11T09:35:14.444Z,6.16
2023-02-11T09:37:41.646Z,6.16
2023-02-11T09:40:09.152Z,6.28
2023-02-11T09:43:01.766Z,6.23
2023-02-11T09:45:31.275Z,6.30
2023-02-11T09:48:27.340Z,6.28
2023-02-11T09:51:00.387Z,6.28
2023-02-11T09:53:29.562Z,6.35
2023-02-11T09:55:59.960Z,6.37
2023-02-11T09:58:35.075Z,6.37
2023-02-11T10:01:12.835Z,6.31
2023-02-11T10:03:57.722Z,6.41
2023-02-11T10:06:48.934Z,6.48
2023-02-11T10:09:46.492Z,6.49
2023-02-11T10:12:22.175Z,6.40
2023-02-11T10:15:31.396Z,6.44
2023-02-11T10:18:16.315Z,6.40
2023-02-11T10:21:14.968Z,6.41
2023-02-11T10:23:46.585Z,6.38
2023-02-11T10:26:17.194Z,6.37
2023-02-11T10:28:49.522Z,6.41
2023-02-11T10:31:18.926Z,6.40
2023-02-11T10:34:09.666Z,6.44
2023-02-11T10:36:39.852Z,6.42
2023-02-11T10:39:21.460Z,6.42
2023-02-11T10:41:53.745Z,6.46
2023-02-11T10:44:28.785Z,6.49
2023-02-11T10:46:57.260Z,6.49
2023-02-11T10:49:35.117Z,6.54
2023-02-11T10:52:24.595Z,6.51
2023-02-11T10:55:00.268Z,6.44
2023-02-11T10:57:32.861Z,6.37
2023-02-11T11:00:06.907Z,6.42
2023-02-11T11:02:38.662Z,6.41
2023-02-11T11:05:36.048Z,6.40
2023-02-11T11:08:06.985Z,6.38
2023-02-11T11:10:45.806Z,6.40
2023-02-11T11:13:35.427Z,6.45
2023-02-11T11:16:14.259Z,6.38
2023-02-11T11:18:43.782Z,6.37
2023-02-11T11:21:30.228Z,6.38
2023-02-11T11:24:02.067Z,6.41
2023-02-11T11:26:56.893Z,6.41
2023-02-11T11:29:30.368Z,6.44
2023-02-11T11:32:01.184Z,6.49
2023-02-11T11:34:37.131Z,6.55
2023-02-11T11:37:24.518Z,6.56
2023-02-11T11:40:02.318Z,6.52
2023-02-11T11:42:35.342Z,6.67
2023-02-11T11:45:04.504Z,6.75
2023-02-11T11:47:42.253Z,6.71
2023-02-11T11:50:34.052Z,6.78
2023-02-11T11:53:21.742Z,6.81
2023-02-11T11:56:00.852Z,6.92
2023-02-11T11:58:28.709Z,6.92
2023-02-11T12:01:01.497Z,6.96
2023-02-11T12:03:48.879Z,6.89
2023-02-11T12:06:44.012Z,6.92
2023-02-11T12:09:52.983Z,6.91
2023-02-11T12:12:36.846Z,6.93
2023-02-11T12:15:39.177Z,6.95
2023-02-11T12:18:05.696Z,7.02
2023-02-11T12:20:40.628Z,7.06
2023-02-11T12:23:27.402Z,7.06
2023-02-11T12:26:13.760Z,6.99
2023-02-11T12:29:03.369Z,7.07
2023-02-11T12:31:49.363Z,7.13
2023-02-11T12:34:40.794Z,7.10
2023-02-11T12:37:27.607Z,7.04
2023-02-11T12:40:18.298Z,7.07
2023-02-11T12:43:18.238Z,7.02
2023-02-11T12:46:05.100Z,7.06
2023-02-11T12:48:49.833Z,7.03
2023-02-11T12:51:35.809Z,6.97
2023-02-11T12:54:24.283Z,7.02
2023-02-11T12:57:21.159Z,7.06
2023-02-11T12:59:50.895Z,7.06
2023-02-11T13:02:27.086Z,7.10
2023-02-11T13:05:19.459Z,7.07
2023-02-11T13:07:47.516Z,7.07
2023-02-11T13:10:13.983Z,7.07
2023-02-11T13:13:05.089Z,7.14
2023-02-11T13:15:32.902Z,7.16
2023-02-11T13:18:21.670Z,7.19
2023-02-11T13:20:52.156Z,7.10
2023-02-11T13:23:21.965Z,7.09
2023-02-11T13:25:58.612Z,7.07
2023-02-11T13:29:05.146Z,7.16
2023-02-11T13:31:32.219Z,7.20
2023-02-11T13:33:58.896Z,7.13
2023-02-11T13:36:27.674Z,7.06
2023-02-11T13:39:05.226Z,7.14
2023-02-11T13:41:39.125Z,7.14
2023-02-11T13:44:26.630Z,7.12
2023-02-11T13:47:02.219Z,7.14
2023-02-11T13:49:36.607Z,7.09
2023-02-11T13:52:06.618Z,7.12
2023-02-11T13:54:39.390Z,7.12
2023-02-11T13:57:20.963Z,7.20
2023-02-11T13:59:49.120Z,7.16
2023-02-11T14:02:49.714Z,7.12
2023-02-11T14:05:51.202Z,7.14
2023-02-11T14:08:43.499Z,7.12
2023-02-11T14:11:41.576Z,7.07
2023-02-11T14:14:08.303Z,7.10
2023-02-11T14:16:38.498Z,7.13
2023-02-11T14:19:06.705Z,7.10
2023-02-11T14:21:37.096Z,7.12
2023-02-11T14:24:07.050Z,7.09
2023-02-11T14:26:57.918Z,7.13
2023-02-11T14:29:45.914Z,7.19
2023-02-11T14:32:49.124Z,7.20
2023-02-11T14:35:40.165Z,7.13
2023-02-11T14:38:40.519Z,7.06
2023-02-11T14:41:16.104Z,7.02
2023-02-11T14:43:46.870Z,7.09
2023-02-11T14:46:16.496Z,7.06
2023-02-11T14:48:50.213Z,7.10
2023-02-11T14:51:25.746Z,7.07
2023-02-11T14:53:57.834Z,7.10
2023-02-11T14:56:31.056Z,7.09
2023-02-11T14:58:58.807Z,7.12
2023-02-11T15:01:35.260Z,7.10
2023-02-11T15:04:05.358Z,7.12
2023-02-11T15:06:36.535Z,7.17
2023-02-11T15:09:18.916Z,7.12
2023-02-11T15:11:48.544Z,7.12
2023-02-11T15:14:23.853Z,7.16
2023-02-11T15:16:56.213Z,7.07
2023-02-11T15:19:36.475Z,7.14
2023-02-11T15:22:27.154Z,7.13
2023-02-11T15:25:09.696Z,7.06
2023-02-11T15:27:44.992Z,7.07
2023-02-11T15:30:23.794Z,7.14
2023-02-11T15:33:00.024Z,7.09
2023-02-11T15:35:29.821Z,7.04
2023-02-11T15:37:58.677Z,7.06
2023-02-11T15:40:32.450Z,7.03
2023-02-11T15:43:04.392Z,7.07
2023-02-11T15:45:35.338Z,7.06
2023-02-11T15:48:17.553Z,7.04
2023-02-11T15:50:52.228Z,7.12
2023-02-11T15:53:25.102Z,7.06
2023-02-11T15:55:59.438Z,7.09
2023-02-11T15:58:26.063Z,7.03
2023-02-11T16:00:59.706Z,7.00
2023-02-11T16:03:32.465Z,7.04
2023-02-11T16:06:35.840Z,6.99
2023-02-11T16:09:08.393Z,7.03
2023-02-11T16:11:53.674Z,6.99
2023-02-11T16:14:27.692Z,7.04
2023-02-11T16:17:09.784Z,7.06
2023-02-11T16:19:42.636Z,7.02
2023-02-11T16:22:15.526Z,6.95
2023-02-11T16:24:42.434Z,7.02
2023-02-11T16:27:34.007Z,6.99
2023-02-11T16:30:00.705Z,7.03
2023-02-11T16:32:30.019Z,7.07
2023-02-11T16:34:58.645Z,7.04
2023-02-11T16:37:25.750Z,7.03
2023-02-11T16:39:58.601Z,7.09
2023-02-11T16:42:25.328Z,7.06
2023-02-11T16:44:51.937Z,7.02
2023-02-11T16:47:25.759Z,6.99
2023-02-11T16:49:52.995Z,7.12
2023-02-11T16:52:21.604Z,7.14
2023-02-11T16:54:48.324Z,7.16
2023-02-11T16:57:28.177Z,7.17
2023-02-11T16:59:58.145Z,7.16
2023-02-11T17:02:28.188Z,7.09
2023-02-11T17:04:56.369Z,7.10
2023-02-11T17:07:23.022Z,7.10
2023-02-11T17:09:49.815Z,7.09
2023-02-11T17:12:16.373Z,7.07
2023-02-11T17:14:43.544Z,7.09
2023-02-11T17:17:11.384Z,7.06
2023-02-11T17:19:38.710Z,7.07
2023-02-11T17:22:05.958Z,7.06
2023-02-11T17:24:32.793Z,7.17
2023-02-11T17:26:59.462Z,7.19
2023-02-11T17:29:26.124Z,7.14
2023-02-11T17:31:53.370Z,7.12
2023-02-11T17:34:21.793Z,7.04
2023-02-11T17:36:48.940Z,7.13
2023-02-11T17:39:15.743Z,7.16
2023-02-11T17:41:42.334Z,7.09
2023-02-11T17:44:12.154Z,7.02
2023-02-11T17:46:38.753Z,7.10
2023-02-11T17:49:05.477Z,7.13
2023-02-11T17:51:36.873Z,7.09
2023-02-11T17:54:10.410Z,7.10
2023-02-11T17:56:38.436Z,7.07
2023-02-11T17:59:06.391Z,7.14
2023-02-11T18:01:34.020Z,7.07
2023-02-11T18:04:01.157Z,7.09
2023-02-11T18:06:29.051Z,7.13
2023-02-11T18:08:58.030Z,7.10
2023-02-11T18:11:27.963Z,7.04
2023-02-11T18:13:54.633Z,7.03
2023-02-11T18:16:23.400Z,7.03
2023-02-11T18:18:50.766Z,7.02
2023-02-11T18:21:20.293Z,7.07
2023-02-11T18:23:48.053Z,7.03
2023-02-11T18:26:16.673Z,7.03
2023-02-11T18:28:45.859Z,7.09
2023-02-11T18:31:14.082Z,7.06
2023-02-11T18:33:42.110Z,7.04
2023-02-11T18:36:11.978Z,7.06
2023-02-11T18:38:39.251Z,7.04
2023-02-11T18:41:07.403Z,7.03
2023-02-11T18:43:34.903Z,6.96
2023-02-11T18:46:02.954Z,6.95
2023-02-11T18:48:29.743Z,6.89
2023-02-11T18:50:56.286Z,6.89
2023-02-11T18:53:24.540Z,6.93
2023-02-11T18:55:53.258Z,7.03
2023-02-11T18:58:21.291Z,6.95
2023-02-11T19:00:48.804Z,6.88
2023-02-11T19:03:15.664Z,6.95
2023-02-11T19:05:44.712Z,6.93
2023-02-11T19:08:11.601Z,6.89
2023-02-11T19:10:46.170Z,6.89
2023-02-11T19:13:13.727Z,6.95
2023-02-11T19:15:42.287Z,6.88
2023-02-11T19:18:09.261Z,6.86
2023-02-11T19:20:35.818Z,6.92
2023-02-11T19:23:02.621Z,6.88
2023-02-11T19:25:29.202Z,6.92
2023-02-11T19:27:55.823Z,7.00
2023-02-11T19:30:22.545Z,6.95
2023-02-11T19:32:52.425Z,6.89
2023-02-11T19:35:21.819Z,6.83
2023-02-11T19:37:48.680Z,6.78
2023-02-11T19:40:19.150Z,6.73
2023-02-11T19:42:45.852Z,6.82
2023-02-11T19:45:12.697Z,6.83
2023-02-11T19:47:39.272Z,6.76
2023-02-11T19:50:06.534Z,6.73
2023-02-11T19:52:33.142Z,6.73
2023-02-11T19:55:00.702Z,6.73
2023-02-11T19:57:27.361Z,6.71
2023-02-11T19:59:54.989Z,6.73
2023-02-11T20:02:21.902Z,6.71
2023-02-11T20:04:48.725Z,6.71
2023-02-11T20:07:15.718Z,6.64
2023-02-11T20:09:42.593Z,6.69
2023-02-11T20:12:09.706Z,6.73
2023-02-11T20:14:36.474Z,6.73
2023-02-11T20:17:03.229Z,6.67
2023-02-11T20:19:30.710Z,6.59
2023-02-11T20:21:57.540Z,6.49
2023-02-11T20:24:24.985Z,6.61
2023-02-11T20:26:55.273Z,6.64
2023-02-11T20:29:22.899Z,6.62
2023-02-11T20:31:50.244Z,6.58
2023-02-11T20:34:17.972Z,6.62
2023-02-11T20:36:51.486Z,6.49
2023-02-11T20:39:21.579Z,6.58
2023-02-11T20:41:48.920Z,6.46
2023-02-11T20:44:15.591Z,6.48
2023-02-11T20:46:46.317Z,6.45
2023-02-11T20:49:15.649Z,6.41
2023-02-11T20:51:42.766Z,6.42
2023-02-11T20:54:18.142Z,6.48
2023-02-11T20:56:47.949Z,6.45
2023-02-11T20:59:16.766Z,6.41
2023-02-11T21:01:47.961Z,6.38
2023-02-11T21:04:20.170Z,6.40
2023-02-11T21:06:49.467Z,6.37
2023-02-11T21:09:21.728Z,6.31
2023-02-11T21:11:49.807Z,6.28
2023-02-11T21:14:17.836Z,6.34
2023-02-11T21:16:45.261Z,6.31
2023-02-11T21:19:12.082Z,6.28
2023-02-11T21:21:39.200Z,6.25
2023-02-11T21:24:06.750Z,6.28
2023-02-11T21:26:35.373Z,6.31
2023-02-11T21:29:03.895Z,6.37
2023-02-11T21:31:32.291Z,6.38
2023-02-11T21:34:02.165Z,6.44
2023-02-11T21:36:29.875Z,6.42
2023-02-11T21:38:56.459Z,6.37
2023-02-11T21:41:23.099Z,6.34
2023-02-11T21:43:50.598Z,6.35
2023-02-11T21:46:17.953Z,6.40
2023-02-11T21:48:44.722Z,6.38
2023-02-11T21:51:15.213Z,6.45
2023-02-11T21:53:42.100Z,6.42
2023-02-11T21:56:10.362Z,6.42
2023-02-11T21:58:37.248Z,6.48
2023-02-11T22:01:14.999Z,6.40
2023-02-11T22:03:42.710Z,6.40
2023-02-11T22:06:15.731Z,6.44
2023-02-11T22:08:42.328Z,6.41
2023-02-11T22:11:12.138Z,6.37
2023-02-11T22:13:39.535Z,6.40
2023-02-11T22:16:08.984Z,6.44
2023-02-11T22:18:36.104Z,6.46
2023-02-11T22:21:06.198Z,6.40
2023-02-11T22:23:33.267Z,6.34
2023-02-11T22:26:04.784Z,6.34
2023-02-11T22:28:31.515Z,6.32
2023-02-11T22:30:58.736Z,6.30
2023-02-11T22:33:26.946Z,6.28
2023-02-11T22:36:01.734Z,6.25
2023-02-11T22:38:29.325Z,6.24
2023-02-11T22:40:55.969Z,6.24
2023-02-11T22:43:22.849Z,6.23
2023-02-11T22:45:50.448Z,6.14
2023-02-11T22:48:17.499Z,6.17
2023-02-11T22:50:44.501Z,6.17
2023-02-11T22:53:11.114Z,6.16
2023-02-11T22:55:39.128Z,6.11
2023-02-11T22:58:06.216Z,6.09
2023-02-11T23:00:37.886Z,6.10
2023-02-11T23:03:05.690Z,6.13
2023-02-11T23:05:38.950Z,6.09
2023-02-11T23:08:06.025Z,6.11
2023-02-11T23:10:35.021Z,6.21
2023-02-11T23:13:02.949Z,6.14
2023-02-11T23:15:29.940Z,6.14
2023-02-11T23:17:57.047Z,6.16
2023-02-11T23:20:23.622Z,6.10
2023-02-11T23:22:50.219Z,6.09
2023-02-11T23:25:16.860Z,6.06
2023-02-11T23:27:43.381Z,6.03
2023-02-11T23:30:10.649Z,6.00
2023-02-11T23:32:40.800Z,5.99
2023-02-11T23:35:07.596Z,6.00
2023-02-11T23:37:34.204Z,5.97
2023-02-11T23:40:00.789Z,5.97
2023-02-11T23:42:27.388Z,5.99
2023-02-11T23:44:54.011Z,5.97
2023-02-11T23:47:20.822Z,5.96
2023-02-11T23:49:47.453Z,5.96
2023-02-11T23:52:14.203Z,5.96
2023-02-11T23:54:40.942Z,6.02
2023-02-11T23:57:07.659Z,6.00
2023-02-11T23:59:34.254Z,6.02
